Time;durP1;ratioP1;P1;durP2;ratioP2;P2;SDS_P1;SDS_P2;PMS_P1;PMS_P2;Temp;Humidity;BMP_temperature;BMP_pressure;BME280_temperature;BME280_humidity;BME280_pressure;Samples;Min_cycle;Max_cycle;Signal;HPM_P1;HPM_P2
2021/05/31 00:01:23;;;;;;;12.57;10.80;;;;;;;15.77;56.75;102560.41;6180428;28;20261;-53
2021/05/31 00:04:44;;;;;;;11.37;10.17;;;;;;;15.76;56.71;102556.03;6183524;28;20588;-55
2021/05/31 00:08:05;;;;;;;15.03;10.83;;;;;;;15.80;56.35;102555.16;6193489;28;20241;-53
2021/05/31 00:11:26;;;;;;;13.70;10.73;;;;;;;15.59;57.13;102556.06;6187833;28;20233;-49
2021/05/31 00:14:46;;;;;;;11.73;10.43;;;;;;;15.64;57.04;102549.00;6176339;28;20238;-54
2021/05/31 00:18:07;;;;;;;12.83;10.90;;;;;;;15.53;57.15;102551.69;6188042;28;20226;-54
2021/05/31 00:21:27;;;;;;;11.63;9.87;;;;;;;15.23;58.31;102549.09;6169888;28;20234;-53
2021/05/31 00:24:50;;;;;;;10.90;9.70;;;;;;;15.27;58.72;102548.22;6185667;28;20230;-55
2021/05/31 00:28:10;;;;;;;12.10;10.83;;;;;;;15.26;58.13;102549.13;6186098;28;20301;-52
2021/05/31 00:31:31;;;;;;;11.53;10.33;;;;;;;14.99;59.35;102553.50;6194470;28;20233;-52
2021/05/31 00:34:52;;;;;;;15.17;12.53;;;;;;;14.99;59.45;102547.38;6185572;28;20266;-52
2021/05/31 00:38:14;;;;;;;12.63;11.33;;;;;;;14.91;59.74;102545.63;6181439;28;20508;-48
2021/05/31 00:41:35;;;;;;;12.63;11.37;;;;;;;14.88;59.48;102542.13;6186199;28;20241;-52
2021/05/31 00:44:55;;;;;;;12.10;10.23;;;;;;;14.98;59.16;102540.38;6183061;28;20233;-53
2021/05/31 00:48:16;;;;;;;14.27;10.23;;;;;;;14.94;59.14;102539.47;6190190;28;20312;-52
2021/05/31 00:51:37;;;;;;;12.17;11.07;;;;;;;14.88;59.46;102539.50;6180718;28;20229;-51
2021/05/31 00:54:57;;;;;;;12.77;11.30;;;;;;;14.68;60.19;102542.97;6182436;28;20611;-53
2021/05/31 00:58:19;;;;;;;13.27;11.93;;;;;;;14.66;60.35;102544.72;6185516;28;20234;-53
2021/05/31 01:01:40;;;;;;;13.57;11.87;;;;;;;14.74;59.97;102535.09;6183329;28;20558;-52
2021/05/31 01:05:00;;;;;;;11.97;10.70;;;;;;;14.69;60.14;102534.22;6184358;28;20226;-50
2021/05/31 01:08:26;;;;;;;12.27;10.97;;;;;;;14.69;59.97;102534.22;6188435;28;20229;-54
2021/05/31 01:12:00;;;;;;;13.30;11.90;;;;;;;14.61;60.10;102541.19;6146305;28;20616;-51
2021/05/31 01:15:26;;;;;;;12.20;10.77;;;;;;;14.58;60.31;102538.59;6175909;28;20546;-54
2021/05/31 01:18:48;;;;;;;10.97;9.83;;;;;;;14.46;60.47;102543.75;6185984;28;20234;-49
2021/05/31 01:22:12;;;;;;;12.13;11.03;;;;;;;14.48;60.59;102544.63;6184840;28;20233;-54
2021/05/31 01:25:37;;;;;;;12.50;11.07;;;;;;;14.45;60.51;102539.41;6180126;28;20241;-49
2021/05/31 01:29:04;;;;;;;11.70;10.50;;;;;;;14.37;60.81;102536.75;6186097;28;20226;-54
2021/05/31 01:32:30;;;;;;;11.60;10.47;;;;;;;14.32;60.68;102530.63;6187976;28;20639;-53
2021/05/31 01:35:52;;;;;;;13.67;11.93;;;;;;;14.34;60.54;102523.63;6186326;28;20218;-52
2021/05/31 01:39:18;;;;;;;12.93;11.63;;;;;;;14.48;59.96;102535.06;6184359;28;20225;-55
2021/05/31 01:42:40;;;;;;;11.63;10.30;;;;;;;14.36;60.65;102535.00;6187290;28;20233;-53
2021/05/31 01:46:02;;;;;;;13.47;11.13;;;;;;;14.08;61.52;102534.94;6183913;28;20619;-51
2021/05/31 01:49:23;;;;;;;14.97;12.43;;;;;;;14.30;60.62;102535.84;6188636;28;20238;-49
2021/05/31 01:52:45;;;;;;;13.13;11.37;;;;;;;14.30;60.62;102538.47;6177568;28;20246;-52
2021/05/31 01:56:06;;;;;;;11.73;10.20;;;;;;;14.27;61.06;102533.25;6179067;28;20237;-54
2021/05/31 01:59:28;;;;;;;11.93;10.83;;;;;;;13.93;62.14;102534.88;6188305;28;20328;-47
2021/05/31 02:02:51;;;;;;;14.90;13.37;;;;;;;14.15;61.32;102530.56;6183986;28;20244;-54
2021/05/31 02:06:12;;;;;;;12.90;11.53;;;;;;;14.18;61.23;102538.44;6185862;28;20234;-52
2021/05/31 02:09:32;;;;;;;13.03;11.83;;;;;;;13.97;61.93;102534.00;6175888;28;20791;-52
2021/05/31 02:12:55;;;;;;;13.37;11.93;;;;;;;13.82;62.53;102533.94;6181731;28;20308;-53
2021/05/31 02:16:33;;;;;;;12.53;11.33;;;;;;;13.88;62.10;102524.38;6185829;28;20238;-51
2021/05/31 02:19:59;;;;;;;12.87;11.63;;;;;;;13.90;61.98;102525.25;6179739;28;20779;-51
2021/05/31 02:23:20;;;;;;;11.23;9.87;;;;;;;13.83;62.06;102523.47;6187551;28;20233;-52
2021/05/31 02:26:41;;;;;;;12.47;11.27;;;;;;;13.94;61.59;102528.78;6178252;28;20230;-49
2021/05/31 02:30:03;;;;;;;12.23;11.03;;;;;;;13.76;62.20;102521.69;6176399;28;20226;-51
2021/05/31 02:33:24;;;;;;;13.43;11.47;;;;;;;13.62;62.93;102523.38;6188067;28;20225;-49
2021/05/31 02:36:47;;;;;;;12.37;11.20;;;;;;;13.70;62.31;102527.75;6189801;28;20229;-53
2021/05/31 02:40:09;;;;;;;12.10;10.90;;;;;;;13.81;61.85;102527.81;6188825;28;20241;-53
2021/05/31 02:43:29;;;;;;;12.93;11.53;;;;;;;13.71;62.00;102531.28;6181171;28;20233;-54
2021/05/31 02:46:49;;;;;;;14.07;12.77;;;;;;;13.45;63.07;102526.75;6189403;28;20233;-52
2021/05/31 02:50:11;;;;;;;14.73;11.67;;;;;;;13.66;62.47;102530.38;6184737;28;20230;-51
2021/05/31 02:53:34;;;;;;;12.63;11.33;;;;;;;13.76;62.67;102534.78;6183538;28;20559;-52
2021/05/31 02:56:54;;;;;;;13.17;11.40;;;;;;;13.67;63.43;102529.50;6182787;28;20233;-52
2021/05/31 03:00:17;;;;;;;13.40;12.20;;;;;;;13.33;64.35;102524.06;6188595;28;20951;-51
2021/05/31 03:03:37;;;;;;;17.77;15.97;;;;;;;13.37;63.73;102524.06;6177856;28;20329;-52
2021/05/31 03:06:58;;;;;;;21.73;19.53;;;;;;;13.68;63.00;102526.00;6172305;28;20886;-53
2021/05/31 03:10:20;;;;;;;16.60;14.53;;;;;;;13.65;62.78;102526.88;6185597;28;20229;-52
2021/05/31 03:13:41;;;;;;;15.33;13.87;;;;;;;13.51;63.07;102521.56;6179751;28;20228;-52
2021/05/31 03:17:01;;;;;;;13.80;11.90;;;;;;;13.43;63.20;102522.38;6179751;28;20683;-51
2021/05/31 03:20:23;;;;;;;12.97;11.67;;;;;;;13.40;63.52;102528.47;6187694;28;20233;-51
2021/05/31 03:23:44;;;;;;;13.73;12.53;;;;;;;13.55;62.49;102528.56;6175518;28;20520;-55
2021/05/31 03:27:07;;;;;;;13.77;12.53;;;;;;;13.63;62.22;102532.94;6164711;28;20234;-52
2021/05/31 03:30:28;;;;;;;13.87;11.90;;;;;;;13.52;62.47;102532.91;6189493;28;22317;-54
2021/05/31 03:33:48;;;;;;;14.13;12.73;;;;;;;13.56;62.36;102530.31;6184384;28;20287;-53
2021/05/31 03:37:09;;;;;;;14.20;12.73;;;;;;;13.61;61.97;102522.50;6164562;28;20227;-54
2021/05/31 03:40:29;;;;;;;14.57;13.07;;;;;;;13.58;62.17;102528.56;6151513;28;20229;-53
2021/05/31 03:43:51;;;;;;;15.13;13.57;;;;;;;13.65;62.09;102531.22;6166934;28;20230;-52
2021/05/31 03:47:11;;;;;;;13.27;11.97;;;;;;;13.51;62.54;102532.03;6162456;28;20266;-50
2021/05/31 03:50:32;;;;;;;13.40;12.10;;;;;;;13.51;62.63;102525.91;6161499;28;20235;-55
2021/05/31 03:53:53;;;;;;;12.57;11.27;;;;;;;13.58;62.60;102533.81;6167229;28;20223;-53
2021/05/31 03:57:14;;;;;;;14.77;12.67;;;;;;;13.68;62.45;102528.63;6187590;28;20249;-55
2021/05/31 04:00:36;;;;;;;13.83;11.50;;;;;;;13.74;62.02;102533.91;6183762;28;20556;-54
2021/05/31 04:03:58;;;;;;;13.63;12.23;;;;;;;13.77;61.51;102528.69;6187238;28;20233;-53
2021/05/31 04:14:36;;;;;;;15.60;12.70;;;;;;;13.83;61.15;102518.22;6186142;28;20241;-51
2021/05/31 04:17:58;;;;;;;13.73;12.20;;;;;;;13.95;61.12;102520.03;6182399;28;21787;-50
2021/05/31 04:21:18;;;;;;;12.90;11.60;;;;;;;14.03;60.92;102517.44;6165444;28;20581;-55
2021/05/31 04:24:39;;;;;;;12.97;11.63;;;;;;;14.13;60.47;102516.59;6185971;28;20230;-50
2021/05/31 04:27:59;;;;;;;14.03;12.33;;;;;;;14.22;59.91;102521.88;6186594;28;20603;-52
2021/05/31 04:31:20;;;;;;;14.67;13.17;;;;;;;14.27;59.67;102517.53;6161459;28;20238;-54
2021/05/31 04:34:41;;;;;;;11.67;10.47;;;;;;;13.99;59.36;102512.16;6187435;28;20230;-46
2021/05/31 04:38:02;;;;;;;13.20;11.17;;;;;;;14.33;58.62;102508.81;6184798;28;20482;-53
2021/05/31 04:41:22;;;;;;;11.67;10.60;;;;;;;14.25;58.57;102508.78;6166425;28;20348;-51
2021/05/31 04:44:42;;;;;;;12.40;11.17;;;;;;;14.51;57.88;102507.97;6147416;28;20640;-49
2021/05/31 04:48:04;;;;;;;11.00;9.80;;;;;;;14.53;56.97;102507.06;6177795;28;20595;-52
2021/05/31 04:51:26;;;;;;;11.30;10.20;;;;;;;14.54;56.00;102508.84;6167062;28;20919;-50
2021/05/31 04:54:48;;;;;;;9.87;8.83;;;;;;;14.54;56.15;102514.09;6177091;28;20257;-51
2021/05/31 04:58:08;;;;;;;10.37;9.27;;;;;;;14.79;55.38;102510.63;6158648;28;20249;-52
2021/05/31 05:01:29;;;;;;;9.67;8.67;;;;;;;14.77;54.88;102515.88;6172135;28;20230;-52
2021/05/31 05:04:49;;;;;;;11.60;9.03;;;;;;;14.64;54.42;102509.75;6181281;28;20230;-50
2021/05/31 05:08:11;;;;;;;9.03;8.13;;;;;;;14.89;53.44;102509.78;6185272;28;20364;-51
2021/05/31 05:11:31;;;;;;;10.90;8.20;;;;;;;14.56;53.21;102506.22;6185223;28;20336;-54
2021/05/31 05:14:51;;;;;;;10.80;7.13;;;;;;;14.54;52.82;102507.97;6186272;28;20360;-48
2021/05/31 05:18:12;;;;;;;7.53;6.77;;;;;;;14.74;51.88;102500.16;6177539;28;20241;-51
2021/05/31 05:21:32;;;;;;;7.23;6.63;;;;;;;14.79;51.42;102501.00;6182455;28;20241;-49
2021/05/31 05:24:54;;;;;;;9.13;7.27;;;;;;;14.77;50.36;102506.28;6159341;28;20234;-52
2021/05/31 05:28:14;;;;;;;8.53;7.70;;;;;;;14.78;50.07;102501.91;6173197;28;20326;-52
2021/05/31 05:31:34;;;;;;;6.93;6.10;;;;;;;15.07;48.62;102504.50;6187296;28;20537;-54
2021/05/31 05:34:58;;;;;;;8.27;5.83;;;;;;;14.95;47.75;102499.28;6163479;28;20230;-50
2021/05/31 05:42:19;;;;;;;6.90;5.43;;;;;;;15.52;45.97;102499.16;6168193;28;20230;-51
2021/05/31 05:45:50;;;;;;;6.37;4.70;;;;;;;15.41;45.86;102512.34;6185811;28;20946;-53
2021/05/31 05:49:10;;;;;;;7.30;5.47;;;;;;;15.41;44.52;102509.72;6178515;28;20324;-55
2021/05/31 05:52:30;;;;;;;4.23;3.83;;;;;;;15.45;43.62;102500.94;6183060;28;20325;-52
2021/05/31 05:55:51;;;;;;;6.43;3.73;;;;;;;14.89;43.08;102499.28;6185353;28;20540;-55
2021/05/31 05:59:13;;;;;;;5.00;3.93;;;;;;;15.29;41.98;102500.09;6183867;28;20931;-55
2021/05/31 06:02:33;;;;;;;4.73;3.30;;;;;;;15.14;40.72;102506.25;6183405;28;20241;-52
2021/05/31 06:05:54;;;;;;;3.63;2.57;;;;;;;15.20;39.83;102508.00;6182484;28;20241;-55
2021/05/31 06:09:16;;;;;;;4.23;3.50;;;;;;;15.22;40.70;102507.97;6186852;28;20233;-56
2021/05/31 06:12:37;;;;;;;3.07;2.77;;;;;;;15.59;41.24;102507.91;6180289;28;20241;-54
2021/05/31 06:16:00;;;;;;;4.33;2.90;;;;;;;15.36;40.94;102501.84;6175741;28;20238;-55
2021/05/31 06:19:21;;;;;;;2.70;2.50;;;;;;;15.78;40.48;102504.38;6182414;28;20674;-54
2021/05/31 06:22:41;;;;;;;3.77;3.07;;;;;;;16.03;38.59;102505.16;6183635;28;20229;-54
2021/05/31 06:26:02;;;;;;;5.17;2.17;;;;;;;16.17;36.76;102502.44;6180884;28;20226;-53
2021/05/31 06:29:23;;;;;;;3.97;2.50;;;;;;;16.14;37.76;102497.19;6157593;28;20677;-53
2021/05/31 06:32:45;;;;;;;3.53;1.87;;;;;;;16.09;36.16;102501.59;6169907;28;20679;-52
2021/05/31 06:36:08;;;;;;;3.43;2.00;;;;;;;16.06;37.20;102499.00;6176867;28;20230;-52
2021/05/31 06:39:28;;;;;;;3.20;2.90;;;;;;;16.08;38.00;102503.34;6182053;28;20241;-53
2021/05/31 06:42:49;;;;;;;3.90;2.53;;;;;;;16.26;37.57;102502.34;6193172;28;20578;-53
2021/05/31 06:46:10;;;;;;;3.33;2.40;;;;;;;15.84;40.19;102508.72;6177609;28;20912;-54
2021/05/31 06:49:32;;;;;;;4.53;2.43;;;;;;;16.87;40.20;102516.00;6183435;28;20242;-53
2021/05/31 06:52:52;;;;;;;3.93;3.10;;;;;;;17.02;39.80;102510.63;6185956;28;20520;-55
2021/05/31 06:56:13;;;;;;;5.13;3.23;;;;;;;16.46;39.08;102510.16;6184543;28;20312;-53
2021/05/31 06:59:33;;;;;;;3.53;3.00;;;;;;;17.24;39.49;102510.41;6182111;28;20242;-55
2021/05/31 07:02:54;;;;;;;3.30;2.93;;;;;;;17.01;38.63;102502.72;6183818;28;20662;-50
2021/05/31 07:06:16;;;;;;;4.70;3.13;;;;;;;17.59;45.56;102506.53;6180470;28;20321;-51
2021/05/31 07:09:36;;;;;;;4.20;2.90;;;;;;;17.10;38.76;102508.78;6187415;28;20515;-51
2021/05/31 07:12:57;;;;;;;3.63;3.20;;;;;;;17.93;39.84;102511.41;6184712;28;20388;-53
2021/05/31 07:16:18;;;;;;;2.50;2.30;;;;;;;18.54;40.07;102507.03;6193826;28;20920;-52
2021/05/31 07:19:39;;;;;;;3.23;2.87;;;;;;;17.68;36.52;102507.28;6180428;28;20225;-51
2021/05/31 07:23:02;;;;;;;3.07;2.10;;;;;;;18.44;39.08;102504.53;6188803;28;20229;-56
2021/05/31 07:26:22;;;;;;;5.10;1.93;;;;;;;19.19;38.79;102496.25;6186667;28;20229;-54
2021/05/31 07:29:44;;;;;;;3.03;2.53;;;;;;;19.80;41.14;102503.00;6185197;28;20234;-55
2021/05/31 07:33:09;;;;;;;3.65;2.08;;;;;;;19.43;34.17;102493.16;6194892;28;20238;-55
2021/05/31 07:36:30;;;;;;;2.60;2.22;;;;;;;19.39;34.28;102491.50;6185155;28;21091;-54
2021/05/31 07:39:52;;;;;;;3.20;2.22;;;;;;;19.33;35.55;102491.63;6189239;28;20840;-53
2021/05/31 07:43:13;;;;;;;2.17;1.93;;;;;;;19.07;34.36;102490.31;6183320;28;20654;-52
2021/05/31 07:46:34;;;;;;;2.45;2.20;;;;;;;18.64;34.04;102485.75;6181346;28;20238;-56
2021/05/31 07:49:55;;;;;;;2.60;1.98;;;;;;;19.17;36.01;102484.84;6182264;28;20246;-50
2021/05/31 07:53:20;;;;;;;3.75;2.10;;;;;;;19.41;34.22;102488.81;6178899;28;20515;-54
2021/05/31 07:56:42;;;;;;;2.38;2.10;;;;;;;19.63;32.48;102489.25;6184046;28;20230;-54
2021/05/31 08:00:06;;;;;;;3.35;2.15;;;;;;;19.68;32.76;102482.97;6173220;28;20536;-53
2021/05/31 08:03:34;;;;;;;1.80;1.60;;;;;;;19.94;32.26;102478.91;6181131;28;20840;-55
2021/05/31 08:06:55;;;;;;;2.72;2.15;;;;;;;19.35;31.90;102475.72;6182890;28;20616;-53
2021/05/31 08:10:16;;;;;;;2.88;1.90;;;;;;;19.54;31.15;102481.50;6183070;28;20679;-56
2021/05/31 08:13:39;;;;;;;2.15;1.75;;;;;;;19.36;32.57;102475.69;6189227;28;20230;-55
2021/05/31 08:17:00;;;;;;;2.83;2.00;;;;;;;19.12;30.80;102477.03;6191866;28;20229;-54
2021/05/31 08:20:20;;;;;;;3.92;1.70;;;;;;;20.09;30.61;102477.72;6182344;28;20234;-52
2021/05/31 08:23:41;;;;;;;3.35;2.17;;;;;;;19.56;31.46;102469.13;6184270;28;20623;-50
2021/05/31 08:27:02;;;;;;;4.00;2.13;;;;;;;19.68;31.20;102475.03;6186289;28;21113;-52
2021/05/31 08:30:25;;;;;;;2.28;2.10;;;;;;;20.23;31.16;102472.97;6184766;28;20241;-52
2021/05/31 08:33:45;;;;;;;1.70;1.60;;;;;;;20.41;31.06;102471.69;6186971;28;20222;-54
2021/05/31 08:37:06;;;;;;;1.60;1.50;;;;;;;20.49;30.48;102471.50;6180617;28;20225;-55
2021/05/31 08:40:27;;;;;;;2.67;2.00;;;;;;;20.90;29.99;102472.25;6184893;28;20237;-53
2021/05/31 08:43:47;;;;;;;2.38;2.17;;;;;;;20.72;28.32;102467.41;6182245;28;20230;-55
2021/05/31 08:47:10;;;;;;;2.10;1.60;;;;;;;20.84;28.45;102461.84;6182274;28;20316;-52
2021/05/31 08:50:33;;;;;;;1.95;1.60;;;;;;;20.85;28.24;102460.91;6182198;28;20250;-53
2021/05/31 08:53:54;;;;;;;2.75;1.38;;;;;;;21.03;27.97;102465.72;6178518;28;20231;-49
2021/05/31 08:57:14;;;;;;;2.28;1.48;;;;;;;20.81;27.54;102460.13;6174815;28;20237;-53
2021/05/31 09:00:36;;;;;;;3.40;1.88;;;;;;;20.82;30.18;102463.63;6207934;28;20241;-52
2021/05/31 09:03:58;;;;;;;2.00;1.67;;;;;;;21.07;30.04;102450.59;6152069;28;20616;-51
2021/05/31 09:07:21;;;;;;;1.90;1.48;;;;;;;21.34;29.21;102451.59;6162578;28;22157;-47
2021/05/31 09:10:45;;;;;;;3.00;2.30;;;;;;;21.14;28.61;102451.31;6159478;28;20230;-48
2021/05/31 09:14:05;;;;;;;2.08;1.77;;;;;;;21.50;28.49;102445.91;6154222;28;20235;-52
2021/05/31 09:17:27;;;;;;;2.75;2.55;;;;;;;21.29;30.08;102445.59;6161549;28;20318;-52
2021/05/31 09:20:48;;;;;;;2.35;2.15;;;;;;;21.26;30.72;102453.63;6158217;28;20571;-51
2021/05/31 09:24:11;;;;;;;2.88;2.20;;;;;;;21.21;31.33;102448.44;6161930;28;20238;-48
2021/05/31 09:27:32;;;;;;;5.00;2.72;;;;;;;20.86;30.81;102454.72;6156230;28;20541;-50
2021/05/31 09:30:52;;;;;;;1.73;1.60;;;;;;;20.89;31.11;102456.41;6154713;28;20636;-53
2021/05/31 09:34:14;;;;;;;4.63;2.72;;;;;;;21.18;31.57;102442.38;6160197;28;20743;-54
2021/05/31 09:37:45;;;;;;;5.65;3.33;;;;;;;21.68;32.63;102445.38;6160129;28;20230;-52
2021/05/31 09:41:05;;;;;;;3.25;2.95;;;;;;;21.86;32.71;102441.28;6176740;28;20497;-50
2021/05/31 09:44:28;;;;;;;2.78;2.50;;;;;;;21.49;33.11;102449.47;6179179;28;20241;-49
2021/05/31 09:47:49;;;;;;;2.85;2.65;;;;;;;21.53;32.33;102445.81;6194579;28;20279;-53
2021/05/31 09:51:13;;;;;;;3.63;2.67;;;;;;;21.45;33.02;102443.41;6159468;28;20235;-55
2021/05/31 09:54:38;;;;;;;4.70;3.08;;;;;;;21.87;32.92;102443.03;6182461;28;20554;-48
2021/05/31 09:57:58;;;;;;;3.28;3.05;;;;;;;21.99;32.61;102424.06;6183431;28;21030;-54
2021/05/31 10:01:36;;;;;;;4.38;2.70;;;;;;;22.26;32.63;102423.28;6159310;28;20261;-53
2021/05/31 10:05:04;;;;;;;3.15;2.55;;;;;;;22.86;31.61;102411.47;6174974;28;20623;-53
2021/05/31 10:12:04;;;;;;;2.30;2.10;;;;;;;21.68;31.54;102413.56;6167184;28;20599;-51
2021/05/31 10:15:27;;;;;;;4.63;3.10;;;;;;;21.04;32.73;102401.25;6177380;28;20230;-51
2021/05/31 10:18:48;;;;;;;2.85;2.60;;;;;;;21.87;33.01;102402.38;6171334;28;20229;-51
2021/05/31 10:22:10;;;;;;;3.17;2.60;;;;;;;22.42;33.02;102400.59;6178972;28;20222;-52
2021/05/31 10:25:31;;;;;;;3.42;2.33;;;;;;;22.27;32.37;102406.44;6181133;28;20238;-54
2021/05/31 10:28:54;;;;;;;4.65;2.67;;;;;;;22.49;31.42;102398.59;6181338;28;20243;-49
2021/05/31 10:32:14;;;;;;;2.72;2.00;;;;;;;21.94;29.91;102386.22;6193630;28;20214;-48
2021/05/31 10:35:35;;;;;;;3.13;2.55;;;;;;;22.57;31.29;102393.91;6175241;28;20317;-55
2021/05/31 10:39:02;;;;;;;3.20;2.63;;;;;;;23.09;31.08;102397.41;6170207;28;20256;-48
2021/05/31 10:42:23;;;;;;;2.88;2.50;;;;;;;23.02;31.40;102390.53;6177607;28;20278;-53
2021/05/31 10:45:45;;;;;;;5.18;2.53;;;;;;;23.15;30.51;102385.69;6156493;28;20536;-47
2021/05/31 10:49:06;;;;;;;5.22;2.92;;;;;;;22.41;29.94;102382.94;6153382;28;20606;-50
2021/05/31 10:52:26;;;;;;;3.85;3.45;;;;;;;22.98;31.38;102375.63;6157450;28;20246;-50
2021/05/31 10:55:52;;;;;;;5.03;2.80;;;;;;;22.91;30.33;102371.47;6162602;28;20225;-51
2021/05/31 10:59:16;;;;;;;4.72;3.13;;;;;;;23.61;30.73;102377.72;6141497;28;20313;-51
2021/05/31 11:02:38;;;;;;;2.90;2.55;;;;;;;23.71;30.43;102373.75;6154020;28;20237;-49
2021/05/31 11:05:58;;;;;;;3.13;2.70;;;;;;;23.76;30.28;102372.66;6157456;28;20620;-53
2021/05/31 11:09:20;;;;;;;6.32;2.88;;;;;;;23.84;29.43;102363.53;6176523;28;20350;-49
2021/05/31 11:12:41;;;;;;;3.65;2.42;;;;;;;23.84;30.09;102375.03;6175111;28;20261;-52
2021/05/31 11:16:05;;;;;;;3.00;2.72;;;;;;;23.98;29.79;102371.81;6159825;28;20248;-51
2021/05/31 11:19:35;;;;;;;3.80;3.17;;;;;;;23.99;28.33;102373.56;6151931;28;20246;-48
2021/05/31 11:22:57;;;;;;;3.55;2.78;;;;;;;22.79;30.63;102352.38;6177049;28;20237;-47
2021/05/31 11:26:18;;;;;;;4.63;4.00;;;;;;;23.95;29.74;102366.63;6163047;28;20603;-50
2021/05/31 11:29:39;;;;;;;3.40;2.58;;;;;;;24.16;30.09;102356.91;6152558;28;20242;-50
2021/05/31 11:33:03;;;;;;;3.10;2.75;;;;;;;24.38;30.29;102354.19;6150735;28;20227;-52
2021/05/31 11:36:37;;;;;;;3.45;2.67;;;;;;;24.82;29.71;102353.22;6176289;28;20249;-51
2021/05/31 11:39:57;;;;;;;2.67;2.47;;;;;;;24.77;29.40;102356.06;6201237;28;20253;-51
2021/05/31 11:43:18;;;;;;;3.25;2.95;;;;;;;24.85;28.83;102343.25;6159191;28;20226;-47
2021/05/31 11:46:50;;;;;;;2.42;2.28;;;;;;;24.46;28.05;102344.06;6154396;28;20231;-52
2021/05/31 11:50:18;;;;;;;2.58;2.38;;;;;;;24.95;28.22;102333.94;6171530;28;20242;-54
2021/05/31 11:53:45;;;;;;;3.17;2.80;;;;;;;25.21;28.38;102329.19;6154358;28;20617;-50
2021/05/31 11:57:07;;;;;;;4.72;3.30;;;;;;;25.31;28.31;102326.97;6136186;28;20242;-47
2021/05/31 12:00:29;;;;;;;5.32;2.85;;;;;;;25.88;28.96;102334.88;6160162;28;20269;-49
2021/05/31 12:03:50;;;;;;;4.72;3.75;;;;;;;25.28;28.55;102336.00;6161692;28;20617;-53
2021/05/31 12:07:12;;;;;;;4.60;2.95;;;;;;;24.75;28.14;102328.63;6175949;28;20242;-50
2021/05/31 12:10:35;;;;;;;4.70;2.88;;;;;;;25.29;29.03;102336.84;6180515;28;20248;-46
2021/05/31 12:14:02;;;;;;;3.53;3.22;;;;;;;25.94;27.84;102334.63;6172674;28;20261;-51
2021/05/31 12:17:24;;;;;;;3.45;3.15;;;;;;;26.11;27.00;102337.31;6152921;28;20235;-51
2021/05/31 12:20:44;;;;;;;3.67;3.33;;;;;;;26.21;26.71;102320.78;6169535;28;20225;-48
2021/05/31 12:24:06;;;;;;;4.50;2.45;;;;;;;26.09;26.90;102324.94;6145126;28;20238;-49
2021/05/31 12:27:29;;;;;;;4.40;3.38;;;;;;;25.27;27.62;102323.56;6159965;28;20237;-50
2021/05/31 12:30:52;;;;;;;2.97;2.78;;;;;;;26.06;28.14;102317.97;6154492;28;20230;-47
2021/05/31 12:34:23;;;;;;;3.42;2.42;;;;;;;26.44;26.26;102312.44;6166149;28;20239;-48
2021/05/31 12:37:47;;;;;;;2.97;2.75;;;;;;;26.70;25.48;102311.09;6155707;28;20234;-51
2021/05/31 12:41:08;;;;;;;2.65;2.30;;;;;;;26.19;26.72;102301.31;6161188;28;20239;-53
2021/05/31 12:44:30;;;;;;;3.70;3.35;;;;;;;26.25;27.23;102298.31;6147595;28;20235;-50
2021/05/31 12:47:53;;;;;;;3.03;2.67;;;;;;;27.15;27.33;102314.00;6178431;28;20327;-53
2021/05/31 12:51:13;;;;;;;3.22;2.92;;;;;;;26.60;26.63;102300.97;6182391;28;20238;-51
2021/05/31 12:54:33;;;;;;;2.88;2.67;;;;;;;26.78;27.31;102297.31;6180280;28;20246;-59
2021/05/31 12:57:55;;;;;;;3.17;2.88;;;;;;;26.79;26.66;102291.00;6174343;28;20526;-53
2021/05/31 13:01:17;;;;;;;3.70;3.40;;;;;;;27.26;26.26;102295.59;6163654;28;20333;-53
2021/05/31 13:04:38;;;;;;;3.80;3.50;;;;;;;27.62;25.45;102294.41;6179790;28;20234;-48
2021/05/31 13:08:01;;;;;;;4.28;3.63;;;;;;;28.48;23.61;102286.63;6178063;28;20316;-50
2021/05/31 13:11:22;;;;;;;3.20;3.00;;;;;;;30.65;21.90;102290.28;6176192;28;20234;-47
2021/05/31 13:14:44;;;;;;;3.15;2.67;;;;;;;31.66;20.05;102294.59;6183219;28;20876;-45
2021/05/31 13:18:09;;;;;;;3.38;2.88;;;;;;;33.06;19.02;102284.50;6171821;28;20234;-49
2021/05/31 13:21:31;;;;;;;3.10;2.80;;;;;;;32.48;19.15;102278.41;6175632;28;20516;-52
2021/05/31 13:24:52;;;;;;;2.72;2.47;;;;;;;34.54;17.68;102282.81;6179869;28;20234;-48
2021/05/31 13:28:16;;;;;;;4.18;3.45;;;;;;;34.12;18.55;102264.81;6178409;28;20796;-47
2021/05/31 13:31:39;;;;;;;3.30;2.95;;;;;;;34.59;17.48;102264.34;6168188;28;20230;-48
2021/05/31 13:35:05;;;;;;;4.47;3.28;;;;;;;32.82;18.24;102265.78;6175084;28;20230;-50
2021/05/31 13:38:27;;;;;;;3.63;2.67;;;;;;;33.30;18.83;102259.19;6180290;28;20599;-52
2021/05/31 13:41:49;;;;;;;4.78;3.67;;;;;;;33.14;19.57;102267.72;6180504;28;20234;-50
2021/05/31 13:45:10;;;;;;;3.55;2.92;;;;;;;32.63;19.81;102260.16;6175608;28;20699;-48
2021/05/31 13:48:32;;;;;;;3.05;2.72;;;;;;;30.84;20.09;102252.13;6176816;28;20241;-52
2021/05/31 13:51:55;;;;;;;3.20;2.65;;;;;;;31.12;21.19;102256.41;6174895;28;20758;-51
2021/05/31 13:55:16;;;;;;;2.95;2.65;;;;;;;30.74;20.12;102245.72;6180973;28;20233;-52
2021/05/31 13:58:36;;;;;;;5.57;3.35;;;;;;;29.61;21.37;102245.44;6184573;28;20234;-53
2021/05/31 14:01:58;;;;;;;2.90;2.70;;;;;;;29.34;22.62;102241.94;6156765;28;20230;-51
2021/05/31 14:05:18;;;;;;;3.58;3.15;;;;;;;29.78;23.68;102235.44;6176993;28;21605;-50
2021/05/31 14:08:40;;;;;;;4.00;3.20;;;;;;;29.73;22.82;102234.88;6178543;28;20241;-50
2021/05/31 14:12:00;;;;;;;3.08;2.78;;;;;;;29.79;23.43;102229.06;6173601;28;20265;-51
2021/05/31 14:15:22;;;;;;;3.17;2.95;;;;;;;28.95;23.61;102228.31;6174205;28;21049;-50
2021/05/31 14:18:43;;;;;;;4.03;3.35;;;;;;;29.16;23.86;102219.84;6173399;28;20233;-48
2021/05/31 14:22:05;;;;;;;4.90;3.40;;;;;;;29.09;23.98;102221.19;6174874;28;20229;-50
2021/05/31 14:25:27;;;;;;;3.60;3.22;;;;;;;28.50;24.87;102218.69;6178083;28;20237;-53
2021/05/31 14:28:47;;;;;;;4.28;3.05;;;;;;;28.56;25.52;102208.47;6178233;28;21419;-49
2021/05/31 14:32:08;;;;;;;3.47;3.08;;;;;;;28.47;24.46;102209.88;6173007;28;20263;-50
2021/05/31 14:35:31;;;;;;;3.35;3.03;;;;;;;28.24;25.42;102205.97;6175192;28;21540;-53
2021/05/31 14:38:51;;;;;;;3.30;3.00;;;;;;;28.74;24.42;102205.59;6179261;28;20237;-49
2021/05/31 14:42:14;;;;;;;3.22;2.92;;;;;;;28.83;25.13;102195.13;6175695;28;20238;-51
2021/05/31 14:45:35;;;;;;;3.22;2.83;;;;;;;28.30;25.91;102202.03;6156569;28;20245;-48
2021/05/31 14:48:55;;;;;;;3.85;3.00;;;;;;;27.58;26.10;102185.84;6163898;28;20225;-49
2021/05/31 14:52:16;;;;;;;3.13;2.83;;;;;;;27.95;26.16;102190.84;6174407;28;20265;-53
2021/05/31 14:55:36;;;;;;;3.90;3.60;;;;;;;28.08;26.18;102191.81;6175584;28;21917;-53
2021/05/31 14:58:58;;;;;;;3.95;3.63;;;;;;;28.53;25.65;102186.38;6167466;28;20241;-50
2021/05/31 15:02:19;;;;;;;6.90;3.50;;;;;;;28.99;25.88;102183.41;6175597;28;20230;-51
2021/05/31 15:05:39;;;;;;;3.28;3.08;;;;;;;28.66;26.13;102176.59;6178238;28;20234;-52
2021/05/31 15:08:59;;;;;;;3.22;2.92;;;;;;;29.32;25.48;102174.97;6169614;28;20238;-52
2021/05/31 15:12:20;;;;;;;3.65;3.15;;;;;;;28.61;26.09;102184.06;6176420;28;20226;-51
2021/05/31 15:15:41;;;;;;;4.60;3.30;;;;;;;29.36;24.95;102170.25;6184195;28;20230;-49
2021/05/31 15:19:03;;;;;;;3.95;3.60;;;;;;;28.73;25.42;102172.56;6166407;28;20516;-53
2021/05/31 15:22:25;;;;;;;5.07;3.80;;;;;;;28.97;24.63;102179.97;6177579;28;20227;-53
2021/05/31 15:25:46;;;;;;;3.15;2.88;;;;;;;28.57;25.97;102178.03;6182132;28;20560;-51
2021/05/31 15:29:06;;;;;;;4.35;3.80;;;;;;;28.43;26.07;102176.19;6182585;28;20877;-51
2021/05/31 15:32:29;;;;;;;3.58;3.28;;;;;;;28.72;26.20;102165.47;6179282;28;20241;-51
2021/05/31 15:35:49;;;;;;;4.28;3.75;;;;;;;29.17;25.47;102167.94;6171826;28;20245;-48
2021/05/31 15:39:09;;;;;;;5.15;3.70;;;;;;;29.30;25.30;102159.94;6170002;28;20230;-52
2021/05/31 15:42:29;;;;;;;5.22;3.60;;;;;;;29.57;25.11;102158.06;6185726;28;20234;-52
2021/05/31 15:45:53;;;;;;;3.60;3.30;;;;;;;29.57;24.92;102158.06;6177893;28;20838;-52